sensor_id;sensor_type;location;lat;lon;timestamp;P1;durP1;ratioP1;P2;durP2;ratioP2
15132;SDS011;7667;51.232;17.110;2023-03-15T00:02:08;7.87;;;4.03;;
15132;SDS011;7667;51.232;17.110;2023-03-15T00:04:35;5.10;;;3.47;;
15132;SDS011;7667;51.232;17.110;2023-03-15T00:07:03;6.90;;;3.80;;
15132;SDS011;7667;51.232;17.110;2023-03-15T00:09:31;4.83;;;3.53;;
15132;SDS011;7667;51.232;17.110;2023-03-15T00:11:58;5.67;;;3.30;;
15132;SDS011;7667;51.232;17.110;2023-03-15T00:14:28;6.97;;;3.47;;
15132;SDS011;7667;51.232;17.110;2023-03-15T00:16:57;5.17;;;3.50;;
15132;SDS011;7667;51.232;17.110;2023-03-15T00:19:24;7.03;;;3.30;;
15132;SDS011;7667;51.232;17.110;2023-03-15T00:21:52;5.70;;;3.40;;
15132;SDS011;7667;51.232;17.110;2023-03-15T00:24:19;6.17;;;3.37;;
15132;SDS011;7667;51.232;17.110;2023-03-15T00:26:50;6.13;;;3.00;;
15132;SDS011;7667;51.232;17.110;2023-03-15T00:29:17;7.40;;;2.93;;
15132;SDS011;7667;51.232;17.110;2023-03-15T00:31:45;5.90;;;2.93;;
15132;SDS011;7667;51.232;17.110;2023-03-15T00:34:12;5.23;;;2.93;;
15132;SDS011;7667;51.232;17.110;2023-03-15T00:36:40;6.83;;;3.10;;
15132;SDS011;7667;51.232;17.110;2023-03-15T00:39:09;5.60;;;2.83;;
15132;SDS011;7667;51.232;17.110;2023-03-15T00:41:37;5.33;;;3.00;;
15132;SDS011;7667;51.232;17.110;2023-03-15T00:44:04;4.93;;;2.80;;
15132;SDS011;7667;51.232;17.110;2023-03-15T00:46:32;6.30;;;2.90;;
15132;SDS011;7667;51.232;17.110;2023-03-15T00:48:59;6.13;;;2.77;;
15132;SDS011;7667;51.232;17.110;2023-03-15T00:51:27;6.77;;;2.63;;
15132;SDS011;7667;51.232;17.110;2023-03-15T00:53:55;4.47;;;2.50;;
15132;SDS011;7667;51.232;17.110;2023-03-15T00:56:24;6.50;;;2.53;;
15132;SDS011;7667;51.232;17.110;2023-03-15T00:58:56;5.43;;;2.60;;
15132;SDS011;7667;51.232;17.110;2023-03-15T01:01:26;5.83;;;2.30;;
15132;SDS011;7667;51.232;17.110;2023-03-15T01:03:55;5.47;;;2.30;;
15132;SDS011;7667;51.232;17.110;2023-03-15T01:06:24;6.67;;;2.77;;
15132;SDS011;7667;51.232;17.110;2023-03-15T01:08:54;5.73;;;2.43;;
15132;SDS011;7667;51.232;17.110;2023-03-15T01:11:35;5.80;;;2.37;;
15132;SDS011;7667;51.232;17.110;2023-03-15T01:14:03;4.90;;;2.13;;
15132;SDS011;7667;51.232;17.110;2023-03-15T01:16:31;6.17;;;2.20;;
15132;SDS011;7667;51.232;17.110;2023-03-15T01:18:59;5.00;;;2.13;;
15132;SDS011;7667;51.232;17.110;2023-03-15T01:21:26;7.37;;;2.60;;
15132;SDS011;7667;51.232;17.110;2023-03-15T01:23:54;6.83;;;2.43;;
15132;SDS011;7667;51.232;17.110;2023-03-15T01:26:21;8.43;;;1.80;;
15132;SDS011;7667;51.232;17.110;2023-03-15T01:28:49;4.37;;;1.70;;
15132;SDS011;7667;51.232;17.110;2023-03-15T01:31:23;7.07;;;1.73;;
15132;SDS011;7667;51.232;17.110;2023-03-15T01:33:53;7.20;;;2.07;;
15132;SDS011;7667;51.232;17.110;2023-03-15T01:36:20;4.90;;;1.80;;
15132;SDS011;7667;51.232;17.110;2023-03-15T01:38:48;8.40;;;1.93;;
15132;SDS011;7667;51.232;17.110;2023-03-15T01:41:17;3.77;;;1.90;;
15132;SDS011;7667;51.232;17.110;2023-03-15T01:43:45;4.90;;;1.93;;
15132;SDS011;7667;51.232;17.110;2023-03-15T01:49:01;7.07;;;1.70;;
15132;SDS011;7667;51.232;17.110;2023-03-15T01:51:43;4.50;;;1.50;;
15132;SDS011;7667;51.232;17.110;2023-03-15T01:57:29;6.43;;;1.70;;
15132;SDS011;7667;51.232;17.110;2023-03-15T02:00:14;5.57;;;1.77;;
15132;SDS011;7667;51.232;17.110;2023-03-15T02:02:46;7.43;;;1.73;;
15132;SDS011;7667;51.232;17.110;2023-03-15T02:05:29;6.60;;;1.50;;
15132;SDS011;7667;51.232;17.110;2023-03-15T02:08:01;4.50;;;1.80;;
15132;SDS011;7667;51.232;17.110;2023-03-15T02:10:34;6.27;;;1.70;;
15132;SDS011;7667;51.232;17.110;2023-03-15T02:13:10;4.97;;;1.40;;
15132;SDS011;7667;51.232;17.110;2023-03-15T02:15:43;7.10;;;1.60;;
15132;SDS011;7667;51.232;17.110;2023-03-15T02:18:12;6.17;;;1.70;;
15132;SDS011;7667;51.232;17.110;2023-03-15T02:23:20;7.27;;;1.97;;
15132;SDS011;7667;51.232;17.110;2023-03-15T02:28:54;7.07;;;1.97;;
15132;SDS011;7667;51.232;17.110;2023-03-15T02:31:21;7.23;;;1.50;;
15132;SDS011;7667;51.232;17.110;2023-03-15T02:33:50;5.77;;;1.60;;
15132;SDS011;7667;51.232;17.110;2023-03-15T02:36:28;6.07;;;1.43;;
15132;SDS011;7667;51.232;17.110;2023-03-15T02:38:57;5.10;;;1.67;;
15132;SDS011;7667;51.232;17.110;2023-03-15T02:41:29;6.93;;;1.70;;
15132;SDS011;7667;51.232;17.110;2023-03-15T02:47:02;6.33;;;1.30;;
15132;SDS011;7667;51.232;17.110;2023-03-15T02:49:38;3.60;;;1.23;;
15132;SDS011;7667;51.232;17.110;2023-03-15T02:52:09;6.77;;;1.67;;
15132;SDS011;7667;51.232;17.110;2023-03-15T02:54:40;5.93;;;1.57;;
15132;SDS011;7667;51.232;17.110;2023-03-15T02:57:10;5.17;;;1.53;;
15132;SDS011;7667;51.232;17.110;2023-03-15T02:59:42;7.73;;;1.80;;
15132;SDS011;7667;51.232;17.110;2023-03-15T03:02:10;4.43;;;1.50;;
15132;SDS011;7667;51.232;17.110;2023-03-15T03:04:38;5.50;;;1.50;;
15132;SDS011;7667;51.232;17.110;2023-03-15T03:07:07;4.03;;;1.47;;
15132;SDS011;7667;51.232;17.110;2023-03-15T03:09:34;5.70;;;1.90;;
15132;SDS011;7667;51.232;17.110;2023-03-15T03:12:02;7.17;;;1.50;;
15132;SDS011;7667;51.232;17.110;2023-03-15T03:14:30;5.20;;;1.47;;
15132;SDS011;7667;51.232;17.110;2023-03-15T03:16:57;6.23;;;1.50;;
15132;SDS011;7667;51.232;17.110;2023-03-15T03:19:25;5.80;;;1.57;;
15132;SDS011;7667;51.232;17.110;2023-03-15T03:21:53;5.77;;;1.80;;
15132;SDS011;7667;51.232;17.110;2023-03-15T03:24:20;5.83;;;1.50;;
15132;SDS011;7667;51.232;17.110;2023-03-15T03:26:51;6.10;;;1.63;;
15132;SDS011;7667;51.232;17.110;2023-03-15T03:29:24;7.00;;;1.50;;
15132;SDS011;7667;51.232;17.110;2023-03-15T03:31:52;4.43;;;1.33;;
15132;SDS011;7667;51.232;17.110;2023-03-15T03:34:20;4.77;;;1.40;;
15132;SDS011;7667;51.232;17.110;2023-03-15T03:36:48;4.60;;;1.40;;
15132;SDS011;7667;51.232;17.110;2023-03-15T03:39:15;5.73;;;1.70;;
15132;SDS011;7667;51.232;17.110;2023-03-15T03:41:43;6.20;;;1.80;;
15132;SDS011;7667;51.232;17.110;2023-03-15T03:44:10;6.27;;;1.60;;
15132;SDS011;7667;51.232;17.110;2023-03-15T03:46:40;7.40;;;1.50;;
15132;SDS011;7667;51.232;17.110;2023-03-15T03:49:07;8.43;;;1.70;;
15132;SDS011;7667;51.232;17.110;2023-03-15T03:51:35;5.30;;;1.47;;
15132;SDS011;7667;51.232;17.110;2023-03-15T03:54:03;6.03;;;1.43;;
15132;SDS011;7667;51.232;17.110;2023-03-15T03:56:31;5.33;;;1.23;;
15132;SDS011;7667;51.232;17.110;2023-03-15T03:58:58;5.20;;;1.60;;
15132;SDS011;7667;51.232;17.110;2023-03-15T04:01:26;4.50;;;1.40;;
15132;SDS011;7667;51.232;17.110;2023-03-15T04:03:53;3.80;;;1.30;;
15132;SDS011;7667;51.232;17.110;2023-03-15T04:06:20;6.57;;;1.70;;
15132;SDS011;7667;51.232;17.110;2023-03-15T04:08:48;4.23;;;1.50;;
15132;SDS011;7667;51.232;17.110;2023-03-15T04:11:16;5.47;;;1.70;;
15132;SDS011;7667;51.232;17.110;2023-03-15T04:13:43;5.63;;;1.70;;
15132;SDS011;7667;51.232;17.110;2023-03-15T04:16:11;5.30;;;1.40;;
15132;SDS011;7667;51.232;17.110;2023-03-15T04:18:40;5.07;;;1.60;;
15132;SDS011;7667;51.232;17.110;2023-03-15T04:21:07;7.40;;;1.77;;
15132;SDS011;7667;51.232;17.110;2023-03-15T04:23:36;4.73;;;1.50;;
15132;SDS011;7667;51.232;17.110;2023-03-15T04:26:04;5.43;;;1.60;;
15132;SDS011;7667;51.232;17.110;2023-03-15T04:28:32;7.27;;;1.80;;
15132;SDS011;7667;51.232;17.110;2023-03-15T04:30:59;5.10;;;1.40;;
15132;SDS011;7667;51.232;17.110;2023-03-15T04:33:27;4.40;;;1.60;;
15132;SDS011;7667;51.232;17.110;2023-03-15T04:35:55;5.70;;;1.53;;
15132;SDS011;7667;51.232;17.110;2023-03-15T04:38:23;4.20;;;1.67;;
15132;SDS011;7667;51.232;17.110;2023-03-15T04:40:52;7.70;;;1.57;;
15132;SDS011;7667;51.232;17.110;2023-03-15T04:43:20;6.63;;;1.53;;
15132;SDS011;7667;51.232;17.110;2023-03-15T04:45:49;4.27;;;1.47;;
15132;SDS011;7667;51.232;17.110;2023-03-15T04:48:17;5.83;;;1.60;;
15132;SDS011;7667;51.232;17.110;2023-03-15T04:50:45;4.63;;;1.50;;
15132;SDS011;7667;51.232;17.110;2023-03-15T04:53:12;7.67;;;1.80;;
15132;SDS011;7667;51.232;17.110;2023-03-15T04:55:40;7.77;;;1.80;;
15132;SDS011;7667;51.232;17.110;2023-03-15T04:58:07;5.97;;;1.57;;
15132;SDS011;7667;51.232;17.110;2023-03-15T05:00:35;6.70;;;1.73;;
15132;SDS011;7667;51.232;17.110;2023-03-15T05:03:02;8.20;;;1.83;;
15132;SDS011;7667;51.232;17.110;2023-03-15T05:05:31;6.20;;;1.70;;
15132;SDS011;7667;51.232;17.110;2023-03-15T05:07:59;6.73;;;1.80;;
15132;SDS011;7667;51.232;17.110;2023-03-15T05:10:27;7.73;;;1.63;;
15132;SDS011;7667;51.232;17.110;2023-03-15T05:12:55;6.27;;;2.13;;
15132;SDS011;7667;51.232;17.110;2023-03-15T05:15:23;6.80;;;1.80;;
15132;SDS011;7667;51.232;17.110;2023-03-15T05:17:50;5.27;;;1.80;;
15132;SDS011;7667;51.232;17.110;2023-03-15T05:20:20;7.57;;;1.80;;
15132;SDS011;7667;51.232;17.110;2023-03-15T05:22:48;6.73;;;1.70;;
15132;SDS011;7667;51.232;17.110;2023-03-15T05:25:18;3.97;;;1.70;;
15132;SDS011;7667;51.232;17.110;2023-03-15T05:27:46;5.50;;;1.50;;
15132;SDS011;7667;51.232;17.110;2023-03-15T05:30:14;3.60;;;1.50;;
15132;SDS011;7667;51.232;17.110;2023-03-15T05:32:42;5.83;;;1.67;;
15132;SDS011;7667;51.232;17.110;2023-03-15T05:35:10;8.30;;;1.77;;
15132;SDS011;7667;51.232;17.110;2023-03-15T05:37:38;6.43;;;1.50;;
15132;SDS011;7667;51.232;17.110;2023-03-15T05:40:06;4.43;;;1.50;;
15132;SDS011;7667;51.232;17.110;2023-03-15T05:42:35;5.43;;;1.33;;
15132;SDS011;7667;51.232;17.110;2023-03-15T05:45:03;7.43;;;2.17;;
15132;SDS011;7667;51.232;17.110;2023-03-15T05:47:31;6.83;;;1.63;;
15132;SDS011;7667;51.232;17.110;2023-03-15T05:49:59;6.00;;;1.70;;
15132;SDS011;7667;51.232;17.110;2023-03-15T05:52:27;4.23;;;1.27;;
15132;SDS011;7667;51.232;17.110;2023-03-15T05:54:54;4.20;;;1.73;;
15132;SDS011;7667;51.232;17.110;2023-03-15T05:57:22;6.20;;;1.57;;
15132;SDS011;7667;51.232;17.110;2023-03-15T05:59:49;5.23;;;1.60;;
15132;SDS011;7667;51.232;17.110;2023-03-15T06:02:20;4.47;;;1.60;;
15132;SDS011;7667;51.232;17.110;2023-03-15T06:04:47;5.53;;;1.60;;
15132;SDS011;7667;51.232;17.110;2023-03-15T06:07:15;7.33;;;1.57;;
15132;SDS011;7667;51.232;17.110;2023-03-15T06:09:42;4.03;;;1.60;;
15132;SDS011;7667;51.232;17.110;2023-03-15T06:12:10;5.50;;;1.73;;
15132;SDS011;7667;51.232;17.110;2023-03-15T06:14:37;6.17;;;1.53;;
15132;SDS011;7667;51.232;17.110;2023-03-15T06:17:05;5.97;;;1.53;;
15132;SDS011;7667;51.232;17.110;2023-03-15T06:19:32;5.60;;;1.93;;
15132;SDS011;7667;51.232;17.110;2023-03-15T06:22:03;4.03;;;1.80;;
15132;SDS011;7667;51.232;17.110;2023-03-15T06:24:30;7.23;;;1.87;;
15132;SDS011;7667;51.232;17.110;2023-03-15T06:26:58;6.90;;;1.80;;
15132;SDS011;7667;51.232;17.110;2023-03-15T06:29:26;5.83;;;1.60;;
15132;SDS011;7667;51.232;17.110;2023-03-15T06:31:54;6.07;;;2.13;;
15132;SDS011;7667;51.232;17.110;2023-03-15T06:34:21;6.30;;;2.07;;
15132;SDS011;7667;51.232;17.110;2023-03-15T06:36:48;7.97;;;2.00;;
15132;SDS011;7667;51.232;17.110;2023-03-15T06:39:18;4.63;;;1.50;;
15132;SDS011;7667;51.232;17.110;2023-03-15T06:41:45;6.37;;;1.67;;
15132;SDS011;7667;51.232;17.110;2023-03-15T06:44:13;4.00;;;1.80;;
15132;SDS011;7667;51.232;17.110;2023-03-15T06:46:40;5.07;;;1.83;;
15132;SDS011;7667;51.232;17.110;2023-03-15T06:49:08;4.40;;;1.50;;
15132;SDS011;7667;51.232;17.110;2023-03-15T06:51:35;5.07;;;1.67;;
15132;SDS011;7667;51.232;17.110;2023-03-15T06:54:04;7.27;;;1.80;;
15132;SDS011;7667;51.232;17.110;2023-03-15T06:56:31;5.10;;;1.50;;
15132;SDS011;7667;51.232;17.110;2023-03-15T06:59:03;7.70;;;1.80;;
15132;SDS011;7667;51.232;17.110;2023-03-15T07:01:30;4.37;;;1.60;;
15132;SDS011;7667;51.232;17.110;2023-03-15T07:03:58;6.77;;;1.90;;
15132;SDS011;7667;51.232;17.110;2023-03-15T07:06:26;6.30;;;1.60;;
15132;SDS011;7667;51.232;17.110;2023-03-15T07:08:54;4.00;;;1.50;;
15132;SDS011;7667;51.232;17.110;2023-03-15T07:11:22;4.13;;;1.70;;
15132;SDS011;7667;51.232;17.110;2023-03-15T07:13:50;6.97;;;2.10;;
15132;SDS011;7667;51.232;17.110;2023-03-15T07:16:17;5.90;;;1.60;;
15132;SDS011;7667;51.232;17.110;2023-03-15T07:18:45;3.43;;;1.67;;
15132;SDS011;7667;51.232;17.110;2023-03-15T07:21:12;6.43;;;1.70;;
15132;SDS011;7667;51.232;17.110;2023-03-15T07:23:40;8.30;;;1.90;;
15132;SDS011;7667;51.232;17.110;2023-03-15T07:26:07;5.03;;;1.93;;
15132;SDS011;7667;51.232;17.110;2023-03-15T07:28:35;6.40;;;1.50;;
15132;SDS011;7667;51.232;17.110;2023-03-15T07:31:03;8.87;;;1.97;;
15132;SDS011;7667;51.232;17.110;2023-03-15T07:33:32;4.70;;;1.60;;
15132;SDS011;7667;51.232;17.110;2023-03-15T07:36:02;4.53;;;1.50;;
15132;SDS011;7667;51.232;17.110;2023-03-15T07:38:32;6.83;;;1.57;;
15132;SDS011;7667;51.232;17.110;2023-03-15T07:41:01;7.00;;;1.50;;
15132;SDS011;7667;51.232;17.110;2023-03-15T07:43:31;8.20;;;1.70;;
15132;SDS011;7667;51.232;17.110;2023-03-15T07:46:00;5.80;;;1.90;;
15132;SDS011;7667;51.232;17.110;2023-03-15T07:48:28;6.87;;;1.70;;
15132;SDS011;7667;51.232;17.110;2023-03-15T07:50:56;5.60;;;1.67;;
15132;SDS011;7667;51.232;17.110;2023-03-15T07:53:24;5.37;;;1.40;;
15132;SDS011;7667;51.232;17.110;2023-03-15T07:55:52;4.37;;;1.57;;
15132;SDS011;7667;51.232;17.110;2023-03-15T07:58:19;5.60;;;1.57;;
15132;SDS011;7667;51.232;17.110;2023-03-15T08:00:47;7.30;;;1.63;;
15132;SDS011;7667;51.232;17.110;2023-03-15T08:03:14;6.50;;;1.70;;
15132;SDS011;7667;51.232;17.110;2023-03-15T08:05:43;5.80;;;1.30;;
15132;SDS011;7667;51.232;17.110;2023-03-15T08:08:10;6.33;;;1.80;;
15132;SDS011;7667;51.232;17.110;2023-03-15T08:10:38;4.67;;;1.60;;
15132;SDS011;7667;51.232;17.110;2023-03-15T08:13:05;4.23;;;1.50;;
15132;SDS011;7667;51.232;17.110;2023-03-15T08:15:33;5.60;;;1.80;;
15132;SDS011;7667;51.232;17.110;2023-03-15T08:18:00;6.53;;;1.57;;
15132;SDS011;7667;51.232;17.110;2023-03-15T08:20:31;4.30;;;1.40;;
15132;SDS011;7667;51.232;17.110;2023-03-15T08:23:02;5.77;;;1.90;;
15132;SDS011;7667;51.232;17.110;2023-03-15T08:25:29;8.53;;;3.07;;
15132;SDS011;7667;51.232;17.110;2023-03-15T08:27:57;5.13;;;1.50;;
15132;SDS011;7667;51.232;17.110;2023-03-15T08:30:24;6.63;;;1.73;;
15132;SDS011;7667;51.232;17.110;2023-03-15T08:32:52;8.50;;;1.50;;
15132;SDS011;7667;51.232;17.110;2023-03-15T08:35:20;3.37;;;1.10;;
15132;SDS011;7667;51.232;17.110;2023-03-15T08:37:49;3.83;;;1.27;;
15132;SDS011;7667;51.232;17.110;2023-03-15T08:40:18;5.60;;;1.33;;
15132;SDS011;7667;51.232;17.110;2023-03-15T08:42:50;9.80;;;1.50;;
15132;SDS011;7667;51.232;17.110;2023-03-15T08:45:19;3.90;;;1.33;;
15132;SDS011;7667;51.232;17.110;2023-03-15T08:47:53;5.63;;;1.50;;
15132;SDS011;7667;51.232;17.110;2023-03-15T08:50:25;7.13;;;1.20;;
15132;SDS011;7667;51.232;17.110;2023-03-15T08:52:54;4.90;;;1.50;;
15132;SDS011;7667;51.232;17.110;2023-03-15T08:55:21;4.73;;;1.70;;
15132;SDS011;7667;51.232;17.110;2023-03-15T08:57:49;6.57;;;1.77;;
15132;SDS011;7667;51.232;17.110;2023-03-15T09:00:17;5.77;;;1.40;;
15132;SDS011;7667;51.232;17.110;2023-03-15T09:02:49;6.30;;;1.33;;
15132;SDS011;7667;51.232;17.110;2023-03-15T09:05:20;4.13;;;1.37;;
15132;SDS011;7667;51.232;17.110;2023-03-15T09:07:50;7.83;;;1.63;;
15132;SDS011;7667;51.232;17.110;2023-03-15T09:10:18;5.97;;;1.60;;
15132;SDS011;7667;51.232;17.110;2023-03-15T09:12:48;7.17;;;1.50;;
15132;SDS011;7667;51.232;17.110;2023-03-15T09:15:19;5.43;;;1.30;;
15132;SDS011;7667;51.232;17.110;2023-03-15T09:17:47;7.40;;;1.33;;
15132;SDS011;7667;51.232;17.110;2023-03-15T09:20:17;6.37;;;1.47;;
15132;SDS011;7667;51.232;17.110;2023-03-15T09:22:51;5.33;;;1.23;;
15132;SDS011;7667;51.232;17.110;2023-03-15T09:25:21;7.77;;;1.70;;
15132;SDS011;7667;51.232;17.110;2023-03-15T09:27:50;5.37;;;1.40;;
15132;SDS011;7667;51.232;17.110;2023-03-15T09:30:18;8.03;;;1.70;;
15132;SDS011;7667;51.232;17.110;2023-03-15T09:32:46;7.03;;;1.70;;
15132;SDS011;7667;51.232;17.110;2023-03-15T09:35:15;9.23;;;2.13;;
15132;SDS011;7667;51.232;17.110;2023-03-15T09:37:46;6.60;;;1.43;;
15132;SDS011;7667;51.232;17.110;2023-03-15T09:40:21;3.53;;;1.60;;
15132;SDS011;7667;51.232;17.110;2023-03-15T09:48:26;8.40;;;2.07;;
15132;SDS011;7667;51.232;17.110;2023-03-15T09:51:12;5.37;;;1.97;;
15132;SDS011;7667;51.232;17.110;2023-03-15T09:53:53;6.83;;;1.50;;
15132;SDS011;7667;51.232;17.110;2023-03-15T09:56:36;6.50;;;1.33;;
15132;SDS011;7667;51.232;17.110;2023-03-15T09:59:11;5.67;;;1.47;;
15132;SDS011;7667;51.232;17.110;2023-03-15T10:01:43;4.70;;;1.30;;
15132;SDS011;7667;51.232;17.110;2023-03-15T10:04:30;3.30;;;1.40;;
15132;SDS011;7667;51.232;17.110;2023-03-15T10:07:11;5.70;;;1.40;;
15132;SDS011;7667;51.232;17.110;2023-03-15T10:09:41;3.87;;;1.47;;
15132;SDS011;7667;51.232;17.110;2023-03-15T10:14:53;6.00;;;1.40;;
15132;SDS011;7667;51.232;17.110;2023-03-15T10:20:40;5.40;;;1.70;;
15132;SDS011;7667;51.232;17.110;2023-03-15T10:23:18;6.70;;;1.40;;
15132;SDS011;7667;51.232;17.110;2023-03-15T10:25:59;3.97;;;1.40;;
15132;SDS011;7667;51.232;17.110;2023-03-15T10:28:28;4.87;;;1.30;;
15132;SDS011;7667;51.232;17.110;2023-03-15T10:31:11;4.77;;;1.37;;
15132;SDS011;7667;51.232;17.110;2023-03-15T10:33:54;4.50;;;1.30;;
15132;SDS011;7667;51.232;17.110;2023-03-15T10:36:23;4.97;;;1.00;;
15132;SDS011;7667;51.232;17.110;2023-03-15T10:38:51;4.53;;;1.80;;
15132;SDS011;7667;51.232;17.110;2023-03-15T10:44:18;6.20;;;2.03;;
15132;SDS011;7667;51.232;17.110;2023-03-15T10:47:00;4.33;;;1.30;;
15132;SDS011;7667;51.232;17.110;2023-03-15T10:49:48;6.77;;;1.97;;
15132;SDS011;7667;51.232;17.110;2023-03-15T10:52:27;4.60;;;1.37;;
15132;SDS011;7667;51.232;17.110;2023-03-15T10:57:51;4.30;;;1.20;;
15132;SDS011;7667;51.232;17.110;2023-03-15T11:00:27;4.43;;;1.33;;
15132;SDS011;7667;51.232;17.110;2023-03-15T11:03:21;5.43;;;1.00;;
15132;SDS011;7667;51.232;17.110;2023-03-15T11:05:57;4.40;;;1.30;;
15132;SDS011;7667;51.232;17.110;2023-03-15T11:08:39;7.73;;;1.10;;
15132;SDS011;7667;51.232;17.110;2023-03-15T11:11:07;6.33;;;1.10;;
15132;SDS011;7667;51.232;17.110;2023-03-15T11:13:36;3.30;;;1.00;;
15132;SDS011;7667;51.232;17.110;2023-03-15T11:18:47;4.97;;;1.57;;
15132;SDS011;7667;51.232;17.110;2023-03-15T11:21:43;5.57;;;1.60;;
15132;SDS011;7667;51.232;17.110;2023-03-15T11:24:18;5.23;;;1.90;;
15132;SDS011;7667;51.232;17.110;2023-03-15T11:27:00;5.50;;;1.40;;
15132;SDS011;7667;51.232;17.110;2023-03-15T11:29:35;6.43;;;2.03;;
15132;SDS011;7667;51.232;17.110;2023-03-15T11:32:23;5.07;;;1.63;;
15132;SDS011;7667;51.232;17.110;2023-03-15T11:35:09;3.00;;;1.23;;
15132;SDS011;7667;51.232;17.110;2023-03-15T11:37:50;5.03;;;1.20;;
15132;SDS011;7667;51.232;17.110;2023-03-15T11:40:45;4.47;;;1.43;;
15132;SDS011;7667;51.232;17.110;2023-03-15T11:46:04;4.80;;;1.30;;
15132;SDS011;7667;51.232;17.110;2023-03-15T11:48:45;3.93;;;1.60;;
15132;SDS011;7667;51.232;17.110;2023-03-15T11:51:18;4.07;;;1.20;;
15132;SDS011;7667;51.232;17.110;2023-03-15T11:53:48;3.97;;;1.10;;
15132;SDS011;7667;51.232;17.110;2023-03-15T11:59:10;7.40;;;1.27;;
15132;SDS011;7667;51.232;17.110;2023-03-15T12:01:50;4.70;;;1.10;;
15132;SDS011;7667;51.232;17.110;2023-03-15T12:06:59;4.40;;;1.83;;
15132;SDS011;7667;51.232;17.110;2023-03-15T12:20:35;4.90;;;1.20;;
15132;SDS011;7667;51.232;17.110;2023-03-15T12:31:16;6.83;;;1.17;;
15132;SDS011;7667;51.232;17.110;2023-03-15T12:33:48;12.27;;;4.97;;
15132;SDS011;7667;51.232;17.110;2023-03-15T12:41:42;4.63;;;1.47;;
15132;SDS011;7667;51.232;17.110;2023-03-15T12:46:59;4.37;;;1.53;;
15132;SDS011;7667;51.232;17.110;2023-03-15T12:49:32;6.50;;;2.40;;
15132;SDS011;7667;51.232;17.110;2023-03-15T12:54:46;10.07;;;4.00;;
15132;SDS011;7667;51.232;17.110;2023-03-15T12:57:28;5.33;;;1.40;;
15132;SDS011;7667;51.232;17.110;2023-03-15T13:00:09;2.30;;;1.13;;
15132;SDS011;7667;51.232;17.110;2023-03-15T13:25:45;3.23;;;1.20;;
15132;SDS011;7667;51.232;17.110;2023-03-15T13:30:51;4.73;;;1.33;;
15132;SDS011;7667;51.232;17.110;2023-03-15T13:33:25;4.27;;;1.50;;
15132;SDS011;7667;51.232;17.110;2023-03-15T13:43:54;3.77;;;2.00;;
15132;SDS011;7667;51.232;17.110;2023-03-15T13:46:25;5.60;;;2.13;;
15132;SDS011;7667;51.232;17.110;2023-03-15T13:48:56;9.10;;;2.07;;
15132;SDS011;7667;51.232;17.110;2023-03-15T13:51:27;6.00;;;2.30;;
15132;SDS011;7667;51.232;17.110;2023-03-15T13:54:05;5.13;;;1.70;;
15132;SDS011;7667;51.232;17.110;2023-03-15T13:57:12;4.87;;;2.47;;
15132;SDS011;7667;51.232;17.110;2023-03-15T13:59:50;4.77;;;1.90;;
15132;SDS011;7667;51.232;17.110;2023-03-15T14:05:16;3.83;;;1.77;;
15132;SDS011;7667;51.232;17.110;2023-03-15T14:10:33;3.30;;;1.50;;
15132;SDS011;7667;51.232;17.110;2023-03-15T14:16:02;6.23;;;2.73;;
15132;SDS011;7667;51.232;17.110;2023-03-15T14:18:41;5.67;;;2.20;;
15132;SDS011;7667;51.232;17.110;2023-03-15T14:21:15;6.27;;;2.27;;
15132;SDS011;7667;51.232;17.110;2023-03-15T14:23:46;4.83;;;2.50;;
15132;SDS011;7667;51.232;17.110;2023-03-15T14:28:48;6.30;;;2.80;;
15132;SDS011;7667;51.232;17.110;2023-03-15T14:31:32;3.83;;;2.30;;
15132;SDS011;7667;51.232;17.110;2023-03-15T14:34:29;3.63;;;2.20;;
15132;SDS011;7667;51.232;17.110;2023-03-15T14:37:06;3.97;;;2.80;;
15132;SDS011;7667;51.232;17.110;2023-03-15T14:40:20;3.43;;;2.10;;
15132;SDS011;7667;51.232;17.110;2023-03-15T14:42:55;5.27;;;2.93;;
15132;SDS011;7667;51.232;17.110;2023-03-15T14:45:22;4.37;;;2.20;;
15132;SDS011;7667;51.232;17.110;2023-03-15T14:47:50;4.23;;;2.00;;
15132;SDS011;7667;51.232;17.110;2023-03-15T14:50:25;3.20;;;2.20;;
15132;SDS011;7667;51.232;17.110;2023-03-15T14:52:56;8.03;;;3.73;;
15132;SDS011;7667;51.232;17.110;2023-03-15T14:55:29;4.77;;;2.60;;
15132;SDS011;7667;51.232;17.110;2023-03-15T14:58:05;5.17;;;3.40;;
15132;SDS011;7667;51.232;17.110;2023-03-15T15:00:41;2.50;;;1.60;;
15132;SDS011;7667;51.232;17.110;2023-03-15T15:03:24;2.80;;;1.40;;
15132;SDS011;7667;51.232;17.110;2023-03-15T15:06:07;3.37;;;1.60;;
15132;SDS011;7667;51.232;17.110;2023-03-15T15:08:38;2.53;;;1.60;;
15132;SDS011;7667;51.232;17.110;2023-03-15T15:11:07;3.80;;;1.80;;
15132;SDS011;7667;51.232;17.110;2023-03-15T15:13:35;2.73;;;1.67;;
15132;SDS011;7667;51.232;17.110;2023-03-15T15:16:04;3.73;;;1.50;;
15132;SDS011;7667;51.232;17.110;2023-03-15T15:18:33;2.80;;;1.50;;
15132;SDS011;7667;51.232;17.110;2023-03-15T15:21:10;3.77;;;1.60;;
15132;SDS011;7667;51.232;17.110;2023-03-15T15:23:53;4.60;;;2.03;;
15132;SDS011;7667;51.232;17.110;2023-03-15T15:26:26;6.37;;;2.57;;
15132;SDS011;7667;51.232;17.110;2023-03-15T15:28:56;6.43;;;3.57;;
15132;SDS011;7667;51.232;17.110;2023-03-15T15:31:25;3.87;;;2.50;;
15132;SDS011;7667;51.232;17.110;2023-03-15T15:33:54;4.43;;;2.33;;
15132;SDS011;7667;51.232;17.110;2023-03-15T15:36:26;3.87;;;1.57;;
15132;SDS011;7667;51.232;17.110;2023-03-15T15:39:00;2.47;;;1.20;;
15132;SDS011;7667;51.232;17.110;2023-03-15T15:41:32;5.23;;;1.83;;
15132;SDS011;7667;51.232;17.110;2023-03-15T15:44:00;3.60;;;1.53;;
15132;SDS011;7667;51.232;17.110;2023-03-15T15:46:28;3.17;;;1.53;;
15132;SDS011;7667;51.232;17.110;2023-03-15T15:48:55;3.00;;;1.67;;
15132;SDS011;7667;51.232;17.110;2023-03-15T15:51:25;2.50;;;1.43;;
15132;SDS011;7667;51.232;17.110;2023-03-15T15:53:58;5.07;;;1.90;;
15132;SDS011;7667;51.232;17.110;2023-03-15T15:56:28;5.13;;;1.87;;
15132;SDS011;7667;51.232;17.110;2023-03-15T15:59:11;3.00;;;2.00;;
15132;SDS011;7667;51.232;17.110;2023-03-15T16:01:41;4.97;;;1.80;;
15132;SDS011;7667;51.232;17.110;2023-03-15T16:04:25;3.57;;;1.87;;
15132;SDS011;7667;51.232;17.110;2023-03-15T16:07:02;4.40;;;1.80;;
15132;SDS011;7667;51.232;17.110;2023-03-15T16:09:30;3.70;;;1.93;;
15132;SDS011;7667;51.232;17.110;2023-03-15T16:12:09;3.33;;;1.93;;
15132;SDS011;7667;51.232;17.110;2023-03-15T16:14:39;2.60;;;1.67;;
15132;SDS011;7667;51.232;17.110;2023-03-15T16:17:09;5.47;;;1.80;;
15132;SDS011;7667;51.232;17.110;2023-03-15T16:19:39;4.90;;;2.27;;
15132;SDS011;7667;51.232;17.110;2023-03-15T16:22:06;5.27;;;2.10;;
15132;SDS011;7667;51.232;17.110;2023-03-15T16:24:34;3.10;;;1.70;;
15132;SDS011;7667;51.232;17.110;2023-03-15T16:27:05;3.47;;;1.70;;
15132;SDS011;7667;51.232;17.110;2023-03-15T16:29:38;2.43;;;1.90;;
15132;SDS011;7667;51.232;17.110;2023-03-15T16:32:17;4.63;;;1.67;;
15132;SDS011;7667;51.232;17.110;2023-03-15T16:35:08;4.50;;;1.90;;
15132;SDS011;7667;51.232;17.110;2023-03-15T16:37:41;3.50;;;1.77;;
15132;SDS011;7667;51.232;17.110;2023-03-15T16:40:17;3.40;;;1.90;;
15132;SDS011;7667;51.232;17.110;2023-03-15T16:42:52;4.50;;;1.77;;
15132;SDS011;7667;51.232;17.110;2023-03-15T16:45:20;3.43;;;1.77;;
15132;SDS011;7667;51.232;17.110;2023-03-15T16:47:49;4.37;;;1.80;;
15132;SDS011;7667;51.232;17.110;2023-03-15T16:50:17;2.60;;;1.70;;
15132;SDS011;7667;51.232;17.110;2023-03-15T16:52:45;3.43;;;2.00;;
15132;SDS011;7667;51.232;17.110;2023-03-15T16:55:22;4.70;;;2.10;;
15132;SDS011;7667;51.232;17.110;2023-03-15T16:57:53;4.70;;;2.20;;
15132;SDS011;7667;51.232;17.110;2023-03-15T17:00:21;2.67;;;2.17;;
15132;SDS011;7667;51.232;17.110;2023-03-15T17:02:51;5.20;;;2.50;;
15132;SDS011;7667;51.232;17.110;2023-03-15T17:05:19;3.47;;;2.13;;
15132;SDS011;7667;51.232;17.110;2023-03-15T17:07:50;5.53;;;3.23;;
15132;SDS011;7667;51.232;17.110;2023-03-15T17:10:23;3.47;;;2.40;;